Time;durP1;ratioP1;P1;durP2;ratioP2;P2;SDS_P1;SDS_P2;PMS_P1;PMS_P2;Temp;Humidity;BMP_temperature;BMP_pressure;BME280_temperature;BME280_humidity;BME280_pressure;Samples;Min_cycle;Max_cycle;Signal;HPM_P1;HPM_P2
2021/06/13 00:02:25;;;;;;;20.15;8.07;;;;;;;;;;5061098;28;20044;-73
2021/06/13 00:04:51;;;;;;;18.33;7.47;;;;;;;;;;5058453;28;20048;-73
2021/06/13 00:07:18;;;;;;;21.88;8.75;;;;;;;;;;5064955;28;20044;-73
2021/06/13 00:09:44;;;;;;;18.55;7.65;;;;;;;;;;5059837;28;20040;-73
2021/06/13 00:12:11;;;;;;;16.48;7.63;;;;;;;;;;5054682;28;20041;-73
2021/06/13 00:14:37;;;;;;;20.02;7.78;;;;;;;;;;5064131;28;20049;-73
2021/06/13 00:17:04;;;;;;;16.05;7.85;;;;;;;;;;5064572;28;20033;-73
2021/06/13 00:19:30;;;;;;;19.17;8.05;;;;;;;;;;5062994;28;20052;-73
2021/06/13 00:21:56;;;;;;;19.38;7.18;;;;;;;;;;5064341;28;20504;-73
2021/06/13 00:24:23;;;;;;;17.60;7.50;;;;;;;;;;5065639;28;20068;-73
2021/06/13 00:26:49;;;;;;;18.92;8.10;;;;;;;;;;5068999;28;20052;-73
2021/06/13 00:29:16;;;;;;;15.63;7.80;;;;;;;;;;5068856;28;20167;-73
2021/06/13 00:31:42;;;;;;;18.63;8.02;;;;;;;;;;5066989;28;20322;-73
2021/06/13 00:34:09;;;;;;;14.07;7.35;;;;;;;;;;5058866;28;20455;-73
2021/06/13 00:36:35;;;;;;;15.43;8.27;;;;;;;;;;5062021;28;20050;-73
2021/06/13 00:39:01;;;;;;;20.15;8.00;;;;;;;;;;5058118;28;20079;-73
2021/06/13 00:41:27;;;;;;;17.88;8.52;;;;;;;;;;5062867;28;20230;-73
2021/06/13 00:43:54;;;;;;;18.23;7.70;;;;;;;;;;5054505;28;20116;-73
2021/06/13 00:46:20;;;;;;;18.35;7.22;;;;;;;;;;5060912;28;20051;-73
2021/06/13 00:48:46;;;;;;;18.77;8.10;;;;;;;;;;5063191;28;20040;-73
2021/06/13 00:51:13;;;;;;;19.52;8.35;;;;;;;;;;5054034;28;20061;-73
2021/06/13 00:53:40;;;;;;;15.32;8.80;;;;;;;;;;5065932;28;20484;-73
2021/06/13 00:56:06;;;;;;;16.92;7.97;;;;;;;;;;5064969;28;20370;-73
2021/06/13 00:58:32;;;;;;;17.42;9.05;;;;;;;;;;5066269;28;22003;-73
2021/06/13 01:00:58;;;;;;;20.27;8.55;;;;;;;;;;5062411;28;20368;-73
2021/06/13 01:03:24;;;;;;;23.27;9.93;;;;;;;;;;5066080;28;20122;-73
2021/06/13 01:05:51;;;;;;;15.70;8.48;;;;;;;;;;5063309;28;20041;-73
2021/06/13 01:08:29;;;;;;;18.02;8.45;;;;;;;;;;5065118;28;20044;-73
2021/06/13 01:10:56;;;;;;;16.05;7.75;;;;;;;;;;5064719;28;20526;-73
2021/06/13 01:13:34;;;;;;;18.02;9.07;;;;;;;;;;5066219;28;20179;-73
2021/06/13 01:16:03;;;;;;;19.50;8.43;;;;;;;;;;5065201;28;20048;-74
2021/06/13 01:18:33;;;;;;;19.13;8.85;;;;;;;;;;5065791;28;20472;-73
2021/06/13 01:21:02;;;;;;;21.75;9.02;;;;;;;;;;5071343;28;20486;-73
2021/06/13 01:23:47;;;;;;;18.65;8.30;;;;;;;;;;5064339;28;20131;-73
2021/06/13 01:26:35;;;;;;;20.92;8.57;;;;;;;;;;5065246;28;20036;-73
2021/06/13 01:29:06;;;;;;;18.95;8.82;;;;;;;;;;5061580;28;20064;-74
2021/06/13 01:31:34;;;;;;;23.55;9.00;;;;;;;;;;5064461;28;20041;-73
2021/06/13 01:34:02;;;;;;;19.08;8.35;;;;;;;;;;5057931;28;20143;-73
2021/06/13 01:36:29;;;;;;;18.40;8.75;;;;;;;;;;5059182;28;20043;-73
2021/06/13 01:38:56;;;;;;;18.75;8.77;;;;;;;;;;5066372;28;20111;-73
2021/06/13 01:41:25;;;;;;;17.08;8.38;;;;;;;;;;5065425;28;20425;-73
2021/06/13 01:43:54;;;;;;;22.00;9.13;;;;;;;;;;5064399;28;20041;-73
2021/06/13 01:46:21;;;;;;;12.73;7.57;;;;;;;;;;5067211;28;20068;-73
2021/06/13 01:48:47;;;;;;;14.90;8.15;;;;;;;;;;5067383;28;20101;-73
2021/06/13 01:51:13;;;;;;;25.02;9.30;;;;;;;;;;5067207;28;20045;-73
2021/06/13 01:53:45;;;;;;;20.08;9.40;;;;;;;;;;5067054;28;20350;-73
2021/06/13 01:56:15;;;;;;;15.63;8.65;;;;;;;;;;5062098;28;21549;-73
2021/06/13 01:58:44;;;;;;;16.13;8.02;;;;;;;;;;5060488;28;20040;-73
2021/06/13 02:01:12;;;;;;;13.00;6.72;;;;;;;;;;5063069;28;20063;-73
2021/06/13 02:03:41;;;;;;;12.88;7.10;;;;;;;;;;5063020;28;20048;-73
2021/06/13 02:06:08;;;;;;;15.82;7.97;;;;;;;;;;5066448;28;20120;-73
2021/06/13 02:08:34;;;;;;;12.52;7.32;;;;;;;;;;5062067;28;20037;-73
2021/06/13 02:11:02;;;;;;;18.08;8.43;;;;;;;;;;5071776;28;20117;-73
2021/06/13 02:13:29;;;;;;;18.92;8.98;;;;;;;;;;5066399;28;20053;-73
2021/06/13 02:15:56;;;;;;;18.65;8.60;;;;;;;;;;5062668;28;20116;-73
2021/06/13 02:18:24;;;;;;;15.25;8.35;;;;;;;;;;5067984;28;20115;-73
2021/06/13 02:20:51;;;;;;;17.88;8.35;;;;;;;;;;5062095;28;20105;-73
2021/06/13 02:23:17;;;;;;;22.08;9.38;;;;;;;;;;5063810;28;20055;-73
2021/06/13 02:25:43;;;;;;;13.30;8.20;;;;;;;;;;5059436;28;20102;-73
2021/06/13 02:28:10;;;;;;;15.82;9.02;;;;;;;;;;5060738;28;20376;-73
2021/06/13 02:30:38;;;;;;;22.65;8.73;;;;;;;;;;5065343;28;20040;-73
2021/06/13 02:33:05;;;;;;;21.15;8.23;;;;;;;;;;5061605;28;20121;-73
2021/06/13 02:35:31;;;;;;;19.50;9.65;;;;;;;;;;5063232;28;20089;-73
2021/06/13 02:37:59;;;;;;;19.60;8.88;;;;;;;;;;5061737;28;20048;-73
2021/06/13 02:40:25;;;;;;;17.67;9.13;;;;;;;;;;5058472;28;20563;-73
2021/06/13 02:42:51;;;;;;;20.25;10.20;;;;;;;;;;5057235;28;20140;-73
2021/06/13 02:45:21;;;;;;;19.00;9.45;;;;;;;;;;5055825;28;20502;-73
2021/06/13 02:47:48;;;;;;;20.38;9.82;;;;;;;;;;5044155;28;20090;-73
2021/06/13 02:50:14;;;;;;;15.98;8.10;;;;;;;;;;5052277;28;20540;-73
2021/06/13 02:52:46;;;;;;;22.20;10.00;;;;;;;;;;5050127;28;20611;-73
2021/06/13 02:55:16;;;;;;;20.67;9.88;;;;;;;;;;5064836;28;20076;-73
2021/06/13 02:57:44;;;;;;;20.67;10.18;;;;;;;;;;5058671;28;20070;-73
2021/06/13 03:00:11;;;;;;;17.00;9.25;;;;;;;;;;5060351;28;20040;-73
2021/06/13 03:02:41;;;;;;;15.85;9.45;;;;;;;;;;5067323;28;20506;-73
2021/06/13 03:05:08;;;;;;;17.58;9.43;;;;;;;;;;5066272;28;20032;-73
2021/06/13 03:07:36;;;;;;;24.42;10.98;;;;;;;;;;5066647;28;20154;-73
2021/06/13 03:10:05;;;;;;;16.85;8.43;;;;;;;;;;5067647;28;20164;-73
2021/06/13 03:12:32;;;;;;;16.88;7.78;;;;;;;;;;5061860;28;20045;-73
2021/06/13 03:14:59;;;;;;;15.02;7.60;;;;;;;;;;5063065;28;20048;-73
2021/06/13 03:17:26;;;;;;;14.80;8.30;;;;;;;;;;5065201;28;20062;-73
2021/06/13 03:19:52;;;;;;;19.15;8.98;;;;;;;;;;5063729;28;20063;-73
2021/06/13 03:22:19;;;;;;;18.80;9.02;;;;;;;;;;5058897;28;20037;-73
2021/06/13 03:24:46;;;;;;;15.82;8.18;;;;;;;;;;5061999;28;20396;-73
2021/06/13 03:27:13;;;;;;;14.73;7.90;;;;;;;;;;5093978;28;20036;-73
2021/06/13 03:29:41;;;;;;;12.98;7.65;;;;;;;;;;5062066;28;20098;-73
2021/06/13 03:32:09;;;;;;;14.88;7.60;;;;;;;;;;5061401;28;20049;-73
2021/06/13 03:34:36;;;;;;;12.70;7.95;;;;;;;;;;5059313;28;20047;-73
2021/06/13 03:37:03;;;;;;;13.80;7.47;;;;;;;;;;5060693;28;20143;-73
2021/06/13 03:39:30;;;;;;;12.32;5.82;;;;;;;;;;5060643;28;20072;-73
2021/06/13 03:41:56;;;;;;;11.77;6.75;;;;;;;;;;5065148;28;20490;-73
2021/06/13 03:44:22;;;;;;;10.73;6.75;;;;;;;;;;5061822;28;20143;-73
2021/06/13 03:46:49;;;;;;;13.02;7.28;;;;;;;;;;5063622;28;20396;-73
2021/06/13 03:49:17;;;;;;;10.73;6.05;;;;;;;;;;5063587;28;20552;-73
2021/06/13 03:51:44;;;;;;;10.93;6.40;;;;;;;;;;5063571;28;20479;-73
2021/06/13 03:54:11;;;;;;;12.95;6.55;;;;;;;;;;5062511;28;20041;-73
2021/06/13 03:56:38;;;;;;;14.02;6.30;;;;;;;;;;5066562;28;20033;-73
2021/06/13 03:59:04;;;;;;;18.95;8.55;;;;;;;;;;5065657;28;20072;-73
2021/06/13 04:01:31;;;;;;;19.92;8.88;;;;;;;;;;5064229;28;20040;-73
2021/06/13 04:03:57;;;;;;;18.80;8.63;;;;;;;;;;5064138;28;20040;-73
2021/06/13 04:06:24;;;;;;;16.08;8.77;;;;;;;;;;5067516;28;20040;-73
2021/06/13 04:08:51;;;;;;;16.17;8.45;;;;;;;;;;5063930;28;20182;-73
2021/06/13 04:11:19;;;;;;;15.93;8.88;;;;;;;;;;5070200;28;20037;-73
2021/06/13 04:13:47;;;;;;;21.13;9.23;;;;;;;;;;5065671;28;20057;-73
2021/06/13 04:16:14;;;;;;;19.20;9.15;;;;;;;;;;5065612;28;20478;-73
2021/06/13 04:18:41;;;;;;;21.60;9.40;;;;;;;;;;5068629;28;20109;-73
2021/06/13 04:21:09;;;;;;;22.50;9.02;;;;;;;;;;5068270;28;20437;-73
2021/06/13 04:23:36;;;;;;;18.08;9.20;;;;;;;;;;5061620;28;20407;-73
2021/06/13 04:26:03;;;;;;;13.93;8.30;;;;;;;;;;5065294;28;20119;-73
2021/06/13 04:28:29;;;;;;;15.75;8.43;;;;;;;;;;5063711;28;20121;-72
2021/06/13 04:31:10;;;;;;;14.52;7.57;;;;;;;;;;5061942;28;20110;-72
2021/06/13 04:33:36;;;;;;;18.00;8.82;;;;;;;;;;5062693;28;20044;-73
2021/06/13 04:36:03;;;;;;;17.85;9.23;;;;;;;;;;5067834;28;20086;-73
2021/06/13 04:38:29;;;;;;;16.67;9.27;;;;;;;;;;5063256;28;20510;-73
2021/06/13 04:40:56;;;;;;;18.48;9.73;;;;;;;;;;5063384;28;20045;-73
2021/06/13 04:43:22;;;;;;;22.45;10.77;;;;;;;;;;5074325;28;20139;-73
2021/06/13 04:45:48;;;;;;;19.00;10.30;;;;;;;;;;5098362;27;20077;-73
2021/06/13 04:48:15;;;;;;;19.58;10.13;;;;;;;;;;5073680;28;20111;-73
2021/06/13 04:50:42;;;;;;;14.93;9.60;;;;;;;;;;5067465;28;20576;-77
2021/06/13 04:53:31;;;;;;;19.05;10.52;;;;;;;;;;5066529;28;20120;-74
2021/06/13 04:55:59;;;;;;;19.60;9.52;;;;;;;;;;5066358;28;20129;-73
2021/06/13 04:58:26;;;;;;;21.13;8.55;;;;;;;;;;5077949;28;20051;-73
2021/06/13 05:00:53;;;;;;;23.60;9.75;;;;;;;;;;5075178;28;20105;-73
2021/06/13 05:03:19;;;;;;;20.20;9.05;;;;;;;;;;5077349;28;20044;-73
2021/06/13 05:05:46;;;;;;;23.30;8.88;;;;;;;;;;5075429;28;20036;-73
2021/06/13 05:08:12;;;;;;;20.45;7.95;;;;;;;;;;5070327;28;20040;-73
2021/06/13 05:10:38;;;;;;;23.95;8.25;;;;;;;;;;5071642;28;20094;-73
2021/06/13 05:13:18;;;;;;;14.60;7.80;;;;;;;;;;5069338;28;20133;-73
2021/06/13 05:15:45;;;;;;;22.67;7.68;;;;;;;;;;5071500;28;20052;-73
2021/06/13 05:18:11;;;;;;;17.17;7.78;;;;;;;;;;5071446;28;20036;-73
2021/06/13 05:20:38;;;;;;;16.77;8.18;;;;;;;;;;5071423;28;20037;-73
2021/06/13 05:23:05;;;;;;;16.25;7.90;;;;;;;;;;5071655;28;20097;-73
2021/06/13 05:25:34;;;;;;;18.85;7.60;;;;;;;;;;5071780;28;20044;-73
2021/06/13 05:28:01;;;;;;;21.35;8.45;;;;;;;;;;5070991;28;20044;-73
2021/06/13 05:30:28;;;;;;;19.35;8.10;;;;;;;;;;5075442;28;20117;-73
2021/06/13 05:32:54;;;;;;;25.50;8.45;;;;;;;;;;5074009;28;20041;-73
2021/06/13 05:35:21;;;;;;;23.00;8.77;;;;;;;;;;5075851;28;20041;-73
2021/06/13 05:37:48;;;;;;;18.60;7.72;;;;;;;;;;5071573;28;20047;-73
2021/06/13 05:40:15;;;;;;;20.38;7.15;;;;;;;;;;5070995;28;20040;-73
2021/06/13 05:42:41;;;;;;;18.98;7.38;;;;;;;;;;5070964;28;20119;-73
2021/06/13 05:45:09;;;;;;;18.08;6.93;;;;;;;;;;5074697;28;20090;-73
2021/06/13 05:47:35;;;;;;;19.88;7.43;;;;;;;;;;5070469;28;20048;-73
2021/06/13 05:50:01;;;;;;;20.10;6.85;;;;;;;;;;5068739;28;20389;-73
2021/06/13 05:52:27;;;;;;;14.38;6.78;;;;;;;;;;5070878;28;20079;-73
2021/06/13 05:54:57;;;;;;;20.75;7.40;;;;;;;;;;5070407;28;20059;-73
2021/06/13 05:57:24;;;;;;;17.77;6.88;;;;;;;;;;5071190;28;20070;-73
2021/06/13 05:59:51;;;;;;;19.58;6.38;;;;;;;;;;5070254;28;20033;-73
2021/06/13 06:02:17;;;;;;;15.63;6.72;;;;;;;;;;5068979;28;20111;-73
2021/06/13 06:04:43;;;;;;;17.60;6.97;;;;;;;;;;5070696;28;20542;-73
2021/06/13 06:07:09;;;;;;;15.95;6.82;;;;;;;;;;5072495;28;20546;-73
2021/06/13 06:09:36;;;;;;;14.25;5.45;;;;;;;;;;5069606;28;20060;-73
2021/06/13 06:12:02;;;;;;;16.42;6.15;;;;;;;;;;5071852;28;20059;-73
2021/06/13 06:14:29;;;;;;;17.00;7.00;;;;;;;;;;5072700;28;20457;-73
2021/06/13 06:16:55;;;;;;;15.90;6.57;;;;;;;;;;5070626;28;20117;-73
2021/06/13 06:19:21;;;;;;;19.58;6.65;;;;;;;;;;5070708;28;20051;-73
2021/06/13 06:21:47;;;;;;;17.73;6.20;;;;;;;;;;5070275;28;20492;-73
2021/06/13 06:24:13;;;;;;;13.00;5.35;;;;;;;;;;5069654;28;20099;-73
2021/06/13 06:26:40;;;;;;;18.98;6.85;;;;;;;;;;5072528;28;20151;-74
2021/06/13 06:29:06;;;;;;;16.73;5.95;;;;;;;;;;5069335;28;20044;-73
2021/06/13 06:31:32;;;;;;;16.75;5.90;;;;;;;;;;5071219;28;20517;-74
2021/06/13 06:33:58;;;;;;;15.52;6.03;;;;;;;;;;5067991;28;20444;-73
2021/06/13 06:36:24;;;;;;;16.35;5.65;;;;;;;;;;5055615;28;20041;-73
2021/06/13 06:38:51;;;;;;;19.10;6.00;;;;;;;;;;5076403;28;20049;-73
2021/06/13 06:41:17;;;;;;;16.25;5.90;;;;;;;;;;5061122;28;20049;-73
2021/06/13 06:43:44;;;;;;;18.98;6.38;;;;;;;;;;5043572;28;20496;-73
2021/06/13 06:46:10;;;;;;;12.70;5.45;;;;;;;;;;5039944;28;20063;-73
2021/06/13 06:48:36;;;;;;;18.33;6.47;;;;;;;;;;5066568;28;20036;-73
2021/06/13 06:51:03;;;;;;;16.20;5.95;;;;;;;;;;5063795;28;21102;-73
2021/06/13 06:53:29;;;;;;;12.23;6.30;;;;;;;;;;5060972;28;20044;-73
2021/06/13 06:55:55;;;;;;;17.98;6.82;;;;;;;;;;5058031;28;20053;-73
2021/06/13 06:58:21;;;;;;;15.00;5.97;;;;;;;;;;5056946;28;20082;-73
2021/06/13 07:00:48;;;;;;;14.00;5.30;;;;;;;;;;5060988;28;20135;-73
2021/06/13 07:03:14;;;;;;;11.15;5.40;;;;;;;;;;5058011;28;20068;-74
2021/06/13 07:05:40;;;;;;;14.70;5.95;;;;;;;;;;5060845;28;20112;-73
2021/06/13 07:08:07;;;;;;;16.67;5.90;;;;;;;;;;5049403;28;20120;-75
2021/06/13 07:10:33;;;;;;;14.82;5.30;;;;;;;;;;5077616;28;20044;-75
2021/06/13 07:12:59;;;;;;;17.02;6.07;;;;;;;;;;5051002;28;20064;-73
2021/06/13 07:15:26;;;;;;;14.77;6.10;;;;;;;;;;5065514;28;20063;-74
2021/06/13 07:17:53;;;;;;;13.85;5.60;;;;;;;;;;5064262;28;20090;-74
2021/06/13 07:20:20;;;;;;;16.67;5.10;;;;;;;;;;5061125;28;20119;-74
2021/06/13 07:22:46;;;;;;;16.30;6.15;;;;;;;;;;5058724;28;20044;-73
2021/06/13 07:25:13;;;;;;;12.73;6.00;;;;;;;;;;5054034;28;20044;-73
2021/06/13 07:27:40;;;;;;;13.90;6.20;;;;;;;;;;5061217;28;20426;-73
2021/06/13 07:30:08;;;;;;;13.25;6.05;;;;;;;;;;5067523;28;20101;-74
2021/06/13 07:32:35;;;;;;;15.80;5.85;;;;;;;;;;5066967;28;20041;-74
2021/06/13 07:35:01;;;;;;;20.50;5.95;;;;;;;;;;5061506;28;20074;-74
2021/06/13 07:37:27;;;;;;;13.75;5.85;;;;;;;;;;5064282;28;20055;-74
2021/06/13 07:39:53;;;;;;;22.80;6.78;;;;;;;;;;5091777;28;20044;-74
2021/06/13 07:42:20;;;;;;;12.60;5.93;;;;;;;;;;5079104;28;20041;-76
2021/06/13 07:44:48;;;;;;;15.52;5.95;;;;;;;;;;5066202;28;20055;-74
2021/06/13 07:47:14;;;;;;;17.95;6.18;;;;;;;;;;5065636;28;20048;-73
2021/06/13 07:49:41;;;;;;;14.68;5.22;;;;;;;;;;5069305;28;20045;-74
2021/06/13 07:52:07;;;;;;;15.13;6.40;;;;;;;;;;5072324;28;20078;-74
2021/06/13 07:54:33;;;;;;;16.58;6.07;;;;;;;;;;5068767;28;20511;-73
2021/06/13 07:56:59;;;;;;;15.05;5.90;;;;;;;;;;5066467;28;20120;-73
2021/06/13 07:59:26;;;;;;;15.10;6.05;;;;;;;;;;5071512;28;20561;-74
2021/06/13 08:01:52;;;;;;;13.40;5.18;;;;;;;;;;5070015;28;20483;-73
2021/06/13 08:04:18;;;;;;;14.27;6.22;;;;;;;;;;5069542;28;20054;-74
2021/06/13 08:06:44;;;;;;;17.45;5.60;;;;;;;;;;5070624;28;20742;-73
2021/06/13 08:09:11;;;;;;;13.02;5.03;;;;;;;;;;5071047;28;20559;-73
2021/06/13 08:11:37;;;;;;;16.40;5.47;;;;;;;;;;5072856;28;20033;-73
2021/06/13 08:14:04;;;;;;;12.52;4.57;;;;;;;;;;5071705;28;20049;-74
2021/06/13 08:16:30;;;;;;;14.02;5.13;;;;;;;;;;5072467;28;20488;-73
2021/06/13 08:18:56;;;;;;;12.35;5.25;;;;;;;;;;5072627;28;20089;-74
2021/06/13 08:21:22;;;;;;;14.60;5.38;;;;;;;;;;5070761;28;20533;-74
2021/06/13 08:23:49;;;;;;;13.77;5.07;;;;;;;;;;5072426;28;20060;-74
2021/06/13 08:26:15;;;;;;;11.50;5.03;;;;;;;;;;5104546;28;20063;-74
2021/06/13 08:28:41;;;;;;;11.55;5.53;;;;;;;;;;5070806;28;20442;-74
2021/06/13 08:31:07;;;;;;;11.35;5.50;;;;;;;;;;5072208;28;20177;-74
2021/06/13 08:33:34;;;;;;;12.52;5.07;;;;;;;;;;5072345;28;20075;-74
2021/06/13 08:36:00;;;;;;;9.23;4.85;;;;;;;;;;5071881;28;20463;-73
2021/06/13 08:38:26;;;;;;;9.35;4.93;;;;;;;;;;5071751;28;20399;-74
2021/06/13 08:40:53;;;;;;;10.63;4.78;;;;;;;;;;5071931;28;20048;-73
2021/06/13 08:43:20;;;;;;;16.42;5.13;;;;;;;;;;5071750;28;20405;-74
2021/06/13 08:45:49;;;;;;;17.10;5.43;;;;;;;;;;5071104;28;20122;-74
2021/06/13 08:48:15;;;;;;;13.43;4.95;;;;;;;;;;5072027;28;20131;-74
2021/06/13 08:50:42;;;;;;;17.08;5.05;;;;;;;;;;5071364;28;20056;-74
2021/06/13 08:53:09;;;;;;;13.13;5.10;;;;;;;;;;5072136;28;20036;-74
2021/06/13 08:55:35;;;;;;;17.75;6.20;;;;;;;;;;5072249;28;20488;-74
2021/06/13 08:58:01;;;;;;;14.05;5.30;;;;;;;;;;5071343;28;20090;-74
2021/06/13 09:00:29;;;;;;;12.07;5.53;;;;;;;;;;5071877;28;20449;-74
2021/06/13 09:02:56;;;;;;;12.43;5.10;;;;;;;;;;5072036;28;20048;-74
2021/06/13 09:05:24;;;;;;;11.00;4.38;;;;;;;;;;5084472;28;20041;-74
2021/06/13 09:07:55;;;;;;;11.52;4.72;;;;;;;;;;5071980;28;20054;-74
2021/06/13 09:10:24;;;;;;;12.50;4.75;;;;;;;;;;5071506;28;20081;-73
2021/06/13 09:12:51;;;;;;;15.68;4.65;;;;;;;;;;5069825;28;20489;-74
2021/06/13 09:15:18;;;;;;;11.80;4.95;;;;;;;;;;5069887;28;20063;-74
2021/06/13 09:17:44;;;;;;;14.55;4.88;;;;;;;;;;5071422;28;20043;-74
2021/06/13 09:20:18;;;;;;;15.32;5.25;;;;;;;;;;5071220;28;20048;-74
2021/06/13 09:23:03;;;;;;;10.55;4.53;;;;;;;;;;5071514;28;20089;-74
2021/06/13 09:25:30;;;;;;;11.40;4.55;;;;;;;;;;5070574;28;20048;-74
2021/06/13 09:28:10;;;;;;;12.75;4.53;;;;;;;;;;5071568;28;20106;-74
2021/06/13 09:30:38;;;;;;;8.77;3.70;;;;;;;;;;5068936;28;20527;-74
2021/06/13 09:33:08;;;;;;;11.15;4.75;;;;;;;;;;5070722;28;20040;-74
2021/06/13 09:35:35;;;;;;;15.25;4.18;;;;;;;;;;5069793;28;20153;-74
2021/06/13 09:38:03;;;;;;;11.32;4.07;;;;;;;;;;5071244;28;20040;-74
2021/06/13 09:40:30;;;;;;;11.57;3.83;;;;;;;;;;5070668;28;20404;-74
2021/06/13 09:42:56;;;;;;;10.30;5.10;;;;;;;;;;5070887;28;20092;-74
2021/06/13 09:45:24;;;;;;;9.43;4.30;;;;;;;;;;5070317;28;20056;-74
2021/06/13 09:48:01;;;;;;;12.38;3.97;;;;;;;;;;5070483;28;20037;-74
2021/06/13 09:50:39;;;;;;;11.63;3.80;;;;;;;;;;5086558;28;20401;-74
2021/06/13 09:53:23;;;;;;;11.00;3.75;;;;;;;;;;5069010;28;20048;-74
2021/06/13 09:56:05;;;;;;;12.95;4.15;;;;;;;;;;5070647;28;20049;-74
2021/06/13 09:58:32;;;;;;;9.25;3.47;;;;;;;;;;5068447;28;20052;-74
2021/06/13 10:01:09;;;;;;;10.65;3.97;;;;;;;;;;5065996;28;20041;-74
2021/06/13 10:03:37;;;;;;;8.30;3.88;;;;;;;;;;5070777;28;20040;-74
2021/06/13 10:06:04;;;;;;;14.52;3.92;;;;;;;;;;5070592;28;20067;-77
2021/06/13 10:08:30;;;;;;;9.50;3.85;;;;;;;;;;5068318;28;20040;-77
2021/06/13 10:11:00;;;;;;;8.65;3.55;;;;;;;;;;5070850;28;20186;-77
2021/06/13 10:13:43;;;;;;;10.57;3.88;;;;;;;;;;5069798;28;20052;-77
2021/06/13 10:16:10;;;;;;;74.25;8.25;;;;;;;;;;5067249;28;20067;-77
2021/06/13 10:18:40;;;;;;;11.43;4.20;;;;;;;;;;5070128;28;20047;-76
2021/06/13 10:21:11;;;;;;;10.07;4.07;;;;;;;;;;5068712;28;20048;-76
2021/06/13 10:23:40;;;;;;;10.73;3.70;;;;;;;;;;5071202;28;20346;-76
2021/06/13 10:26:07;;;;;;;10.85;3.92;;;;;;;;;;5062902;28;20098;-77
2021/06/13 10:28:34;;;;;;;9.35;4.10;;;;;;;;;;5057192;28;20060;-77
2021/06/13 10:31:03;;;;;;;11.55;4.53;;;;;;;;;;5066167;28;20132;-76
2021/06/13 10:33:29;;;;;;;9.10;3.42;;;;;;;;;;5064981;28;20051;-77
2021/06/13 10:36:00;;;;;;;8.35;3.13;;;;;;;;;;5056281;28;20048;-78
2021/06/13 10:38:26;;;;;;;6.90;2.92;;;;;;;;;;5064328;28;20040;-77
2021/06/13 10:40:52;;;;;;;6.93;3.25;;;;;;;;;;5073672;28;20070;-77
2021/06/13 10:43:21;;;;;;;8.82;3.65;;;;;;;;;;5069778;28;20044;-77
2021/06/13 10:45:47;;;;;;;7.70;3.15;;;;;;;;;;5071197;28;20045;-77
2021/06/13 10:48:14;;;;;;;7.20;3.33;;;;;;;;;;5068867;28;20090;-77
2021/06/13 10:50:41;;;;;;;7.82;3.08;;;;;;;;;;5071378;28;20052;-77
2021/06/13 10:53:10;;;;;;;7.70;3.60;;;;;;;;;;5069444;28;20345;-77
2021/06/13 10:55:51;;;;;;;6.57;2.83;;;;;;;;;;5070576;28;20120;-77
2021/06/13 10:58:36;;;;;;;8.82;3.30;;;;;;;;;;5067634;28;20471;-77
2021/06/13 11:01:21;;;;;;;8.15;3.30;;;;;;;;;;5071342;28;20033;-77
2021/06/13 11:04:00;;;;;;;6.50;2.78;;;;;;;;;;5067047;28;20032;-77
2021/06/13 11:06:39;;;;;;;8.98;3.33;;;;;;;;;;5071397;28;20055;-78
2021/06/13 11:09:06;;;;;;;8.43;3.15;;;;;;;;;;5068820;28;20048;-78
2021/06/13 11:11:33;;;;;;;8.43;2.78;;;;;;;;;;5069255;28;20063;-78
2021/06/13 11:14:30;;;;;;;11.80;3.35;;;;;;;;;;5068747;28;20049;-77
2021/06/13 11:16:58;;;;;;;5.85;2.88;;;;;;;;;;5076052;28;20056;-77
2021/06/13 11:19:26;;;;;;;10.52;3.42;;;;;;;;;;5068249;28;20040;-78
2021/06/13 11:22:12;;;;;;;9.40;2.70;;;;;;;;;;5070538;28;20391;-78
2021/06/13 11:24:51;;;;;;;8.55;2.42;;;;;;;;;;5066900;28;20230;-78
2021/06/13 11:27:18;;;;;;;6.38;2.53;;;;;;;;;;5071123;28;20048;-77
2021/06/13 11:29:52;;;;;;;11.15;2.95;;;;;;;;;;5069872;28;20063;-78
2021/06/13 11:32:38;;;;;;;6.88;3.10;;;;;;;;;;5067507;28;20048;-78
2021/06/13 11:35:23;;;;;;;5.40;2.47;;;;;;;;;;5069667;28;20053;-78
2021/06/13 11:38:10;;;;;;;6.55;2.63;;;;;;;;;;5069190;28;20051;-77
2021/06/13 11:40:38;;;;;;;6.40;2.20;;;;;;;;;;5069504;28;20132;-77
2021/06/13 11:43:10;;;;;;;5.88;2.55;;;;;;;;;;5060505;28;20112;-77
2021/06/13 11:45:36;;;;;;;7.47;2.67;;;;;;;;;;5069193;28;20032;-77
2021/06/13 11:48:19;;;;;;;6.45;2.53;;;;;;;;;;5067927;28;20059;-77
2021/06/13 11:51:00;;;;;;;8.07;2.90;;;;;;;;;;5066571;28;20043;-77
2021/06/13 11:53:45;;;;;;;5.63;2.38;;;;;;;;;;5064317;28;20496;-77
2021/06/13 11:56:15;;;;;;;11.20;3.40;;;;;;;;;;5070501;28;20123;-77
2021/06/13 11:58:41;;;;;;;8.05;3.08;;;;;;;;;;5066765;28;20445;-77
2021/06/13 12:01:07;;;;;;;6.45;2.78;;;;;;;;;;5065801;28;20459;-77
2021/06/13 12:03:38;;;;;;;8.50;3.20;;;;;;;;;;5073561;28;20043;-77
2021/06/13 12:06:07;;;;;;;10.32;3.33;;;;;;;;;;5073859;28;20123;-79
2021/06/13 12:08:39;;;;;;;8.25;2.53;;;;;;;;;;5069382;28;20484;-77
2021/06/13 12:11:06;;;;;;;8.07;2.88;;;;;;;;;;5071094;28;20056;-81
2021/06/13 12:13:32;;;;;;;12.30;3.28;;;;;;;;;;5075000;28;20119;-77
2021/06/13 12:15:58;;;;;;;8.40;3.53;;;;;;;;;;5069875;28;20053;-77
2021/06/13 12:18:25;;;;;;;8.40;3.08;;;;;;;;;;5072289;28;20449;-78
2021/06/13 12:20:55;;;;;;;6.97;2.92;;;;;;;;;;5068243;28;20472;-78
2021/06/13 12:23:32;;;;;;;8.63;3.28;;;;;;;;;;5061896;28;20122;-78
2021/06/13 12:28:43;;;;;;;6.07;2.38;;;;;;;;;;5065053;28;20090;-78
2021/06/13 12:31:10;;;;;;;10.93;3.05;;;;;;;;;;5066135;28;20476;-78
2021/06/13 12:33:37;;;;;;;6.75;2.58;;;;;;;;;;5064094;28;20036;-78
2021/06/13 12:36:06;;;;;;;4.80;2.20;;;;;;;;;;5063914;28;20074;-77
2021/06/13 12:38:34;;;;;;;4.78;2.08;;;;;;;;;;5063545;28;20045;-77
2021/06/13 12:41:01;;;;;;;6.05;2.22;;;;;;;;;;5063530;28;20116;-77
2021/06/13 12:43:33;;;;;;;5.78;2.35;;;;;;;;;;5064559;28;20380;-78
2021/06/13 12:45:59;;;;;;;5.35;2.10;;;;;;;;;;5063148;28;20130;-77
2021/06/13 12:48:26;;;;;;;9.80;2.40;;;;;;;;;;5067009;28;20438;-78
2021/06/13 12:50:53;;;;;;;5.47;2.38;;;;;;;;;;5069519;28;20083;-77
2021/06/13 12:53:19;;;;;;;7.45;2.10;;;;;;;;;;5078668;28;20046;-77
2021/06/13 12:55:47;;;;;;;7.95;2.10;;;;;;;;;;5066862;28;20049;-78
2021/06/13 12:58:14;;;;;;;6.13;2.20;;;;;;;;;;5059879;28;20044;-78
2021/06/13 13:00:41;;;;;;;6.35;2.10;;;;;;;;;;5065483;28;20078;-78
2021/06/13 13:03:09;;;;;;;7.13;2.28;;;;;;;;;;5058026;28;20515;-78
2021/06/13 13:05:35;;;;;;;7.30;2.75;;;;;;;;;;5061798;28;20412;-77
2021/06/13 13:08:12;;;;;;;5.70;2.10;;;;;;;;;;5060991;28;20119;-78
2021/06/13 13:10:39;;;;;;;7.22;2.80;;;;;;;;;;5067688;28;20459;-78
2021/06/13 13:13:06;;;;;;;7.60;2.60;;;;;;;;;;5060500;28;20059;-77
2021/06/13 13:15:34;;;;;;;8.02;2.15;;;;;;;;;;5064983;28;20052;-78
2021/06/13 13:18:12;;;;;;;5.00;2.05;;;;;;;;;;5061874;28;20059;-78
2021/06/13 13:20:38;;;;;;;6.97;2.22;;;;;;;;;;5064349;28;20047;-77
2021/06/13 13:23:06;;;;;;;6.20;2.03;;;;;;;;;;5063466;28;20131;-78
2021/06/13 13:25:34;;;;;;;6.65;2.42;;;;;;;;;;5058592;28;20485;-77
2021/06/13 13:28:20;;;;;;;6.70;2.38;;;;;;;;;;5058726;28;20194;-77
2021/06/13 13:30:47;;;;;;;7.60;2.45;;;;;;;;;;5064097;28;20553;-78
2021/06/13 13:33:13;;;;;;;6.00;2.22;;;;;;;;;;5064875;28;20518;-78
2021/06/13 13:35:42;;;;;;;5.75;1.90;;;;;;;;;;5082059;28;20161;-78
2021/06/13 13:38:09;;;;;;;6.10;2.20;;;;;;;;;;5062903;28;20472;-78
2021/06/13 13:40:36;;;;;;;6.82;2.22;;;;;;;;;;5064654;28;20067;-78
2021/06/13 13:43:03;;;;;;;6.47;2.50;;;;;;;;;;5065723;28;20115;-78
2021/06/13 13:45:30;;;;;;;6.57;2.25;;;;;;;;;;5067527;28;20039;-78
2021/06/13 13:48:11;;;;;;;7.22;2.53;;;;;;;;;;5066979;28;20048;-78
2021/06/13 13:50:39;;;;;;;6.82;2.58;;;;;;;;;;5067300;28;20064;-78
2021/06/13 13:53:13;;;;;;;8.77;2.17;;;;;;;;;;5061959;28;20524;-78
2021/06/13 13:55:47;;;;;;;6.60;2.05;;;;;;;;;;5066074;28;20063;-78
2021/06/13 13:58:14;;;;;;;6.45;2.70;;;;;;;;;;5062448;28;20059;-78
2021/06/13 14:00:41;;;;;;;5.60;2.30;;;;;;;;;;5061260;28;20043;-78
2021/06/13 14:03:07;;;;;;;6.32;2.28;;;;;;;;;;5057484;28;20052;-78
2021/06/13 14:05:33;;;;;;;8.07;2.70;;;;;;;;;;5061673;28;20051;-78
2021/06/13 14:08:01;;;;;;;7.18;3.13;;;;;;;;;;5065335;28;20044;-78
2021/06/13 14:10:27;;;;;;;6.22;2.03;;;;;;;;;;5060733;28;20506;-78
2021/06/13 14:12:54;;;;;;;8.65;2.50;;;;;;;;;;5064942;28;20487;-78
2021/06/13 14:15:20;;;;;;;8.25;2.50;;;;;;;;;;5095626;27;20052;-78
2021/06/13 14:17:46;;;;;;;6.60;2.53;;;;;;;;;;5091231;28;20110;-78
2021/06/13 14:20:13;;;;;;;5.85;2.03;;;;;;;;;;5065156;28;20472;-78
2021/06/13 14:22:39;;;;;;;6.90;2.60;;;;;;;;;;5066319;28;20072;-78
2021/06/13 14:25:06;;;;;;;6.40;2.58;;;;;;;;;;5062362;28;20043;-78
2021/06/13 14:27:32;;;;;;;7.40;2.50;;;;;;;;;;5063617;28;20121;-78
2021/06/13 14:29:58;;;;;;;8.48;2.55;;;;;;;;;;5057864;28;20037;-78
2021/06/13 14:32:25;;;;;;;8.35;3.20;;;;;;;;;;5064100;28;20040;-78
2021/06/13 14:34:51;;;;;;;9.55;3.05;;;;;;;;;;5066617;28;20059;-77
2021/06/13 14:37:19;;;;;;;6.00;2.35;;;;;;;;;;5063537;28;20051;-78
2021/06/13 14:39:45;;;;;;;7.05;2.60;;;;;;;;;;5070705;28;20066;-77
2021/06/13 14:42:11;;;;;;;7.70;2.60;;;;;;;;;;5070370;28;20111;-77
2021/06/13 14:44:37;;;;;;;6.55;2.75;;;;;;;;;;5055864;28;20049;-77